TimeCST,TemperatureF,Dew PointF,Humidity,Sea Level PressureIn,VisibilityMPH,Wind Direction,Wind SpeedMPH,Gust SpeedMPH,PrecipitationIn,Events,Conditions,WindDirDegrees,DateUTC
12:04 AM,46.4,41.0,81,29.95,8.0,NW,8.1,-,0.00,,Overcast,320,2012-11-07 06:04:00
12:51 AM,46.0,39.9,79,29.96,8.0,NW,4.6,-,0.00,,Overcast,310,2012-11-07 06:51:00
1:51 AM,46.0,39.0,76,29.96,10.0,WNW,3.5,-,N/A,,Overcast,300,2012-11-07 07:51:00
2:51 AM,46.0,37.9,73,29.96,10.0,WNW,5.8,-,N/A,,Overcast,300,2012-11-07 08:51:00
3:51 AM,46.0,37.0,71,29.95,10.0,WNW,5.8,-,N/A,,Overcast,300,2012-11-07 09:51:00
4:51 AM,46.0,37.0,71,29.97,10.0,WNW,8.1,-,0.00,,Overcast,300,2012-11-07 10:51:00
5:51 AM,45.0,37.0,74,29.98,10.0,NW,4.6,-,0.00,Rain,Light Rain,310,2012-11-07 11:51:00
6:51 AM,45.0,37.0,74,30.00,10.0,NNW,6.9,-,0.00,Rain,Light Rain,340,2012-11-07 12:51:00
7:09 AM,44.6,37.4,76,30.00,10.0,North,5.8,-,0.00,Rain,Light Rain,350,2012-11-07 13:09:00
7:51 AM,46.0,37.0,71,30.03,10.0,NW,6.9,-,0.00,,Mostly Cloudy,320,2012-11-07 13:51:00
8:18 AM,46.4,37.4,71,30.03,10.0,NW,11.5,-,N/A,,Mostly Cloudy,320,2012-11-07 14:18:00
8:51 AM,46.9,37.0,68,30.06,10.0,NNW,11.5,-,N/A,,Overcast,330,2012-11-07 14:51:00
8:58 AM,46.4,37.4,71,30.05,10.0,NNW,16.1,20.7,N/A,,Mostly Cloudy,340,2012-11-07 14:58:00
9:51 AM,46.0,39.0,76,30.09,10.0,NNW,13.8,-,N/A,,Overcast,340,2012-11-07 15:51:00
10:51 AM,46.9,37.9,71,30.10,10.0,North,15.0,-,N/A,,Overcast,360,2012-11-07 16:51:00
11:09 AM,46.4,37.4,71,30.09,10.0,North,13.8,-,N/A,,Overcast,360,2012-11-07 17:09:00
11:51 AM,48.0,37.9,68,30.10,10.0,North,10.4,-,N/A,,Overcast,350,2012-11-07 17:51:00
12:51 PM,48.0,37.0,66,30.11,10.0,NW,8.1,-,N/A,,Overcast,320,2012-11-07 18:51:00
1:04 PM,46.4,37.4,71,30.10,10.0,NW,11.5,19.6,N/A,,Overcast,320,2012-11-07 19:04:00
1:51 PM,48.0,37.0,66,30.11,10.0,NNW,10.4,-,N/A,,Overcast,340,2012-11-07 19:51:00
1:58 PM,48.2,37.4,66,30.10,10.0,NNW,11.5,-,N/A,,Overcast,340,2012-11-07 19:58:00
2:51 PM,48.0,35.1,61,30.12,10.0,North,9.2,-,N/A,,Mostly Cloudy,350,2012-11-07 20:51:00
3:51 PM,48.0,34.0,58,30.14,10.0,NNE,8.1,-,N/A,,Scattered Clouds,30,2012-11-07 21:51:00
4:51 PM,46.4,35.6,66,30.14,10.0,North,5.8,-,N/A,,Mostly Cloudy,10,2012-11-07 22:51:00
5:51 PM,46.9,35.1,63,30.17,10.0,North,4.6,-,N/A,,Mostly Cloudy,360,2012-11-07 23:51:00
6:51 PM,46.0,35.1,66,30.18,10.0,NE,5.8,-,N/A,,Mostly Cloudy,50,2012-11-08 00:51:00
7:51 PM,44.1,34.0,68,30.19,10.0,ENE,5.8,-,N/A,,Mostly Cloudy,70,2012-11-08 01:51:00
8:51 PM,43.0,34.0,71,30.19,10.0,Calm,Calm,-,N/A,,Mostly Cloudy,0,2012-11-08 02:51:00
9:51 PM,44.1,34.0,68,30.20,10.0,Calm,Calm,-,N/A,,Mostly Cloudy,0,2012-11-08 03:51:00
10:51 PM,43.0,34.0,71,30.21,10.0,Calm,Calm,-,N/A,,Mostly Cloudy,0,2012-11-08 04:51:00
11:51 PM,39.9,34.0,79,30.21,10.0,East,3.5,-,N/A,,Partly Cloudy,80,2012-11-08 05:51:00